This is the latest recevied weather packets stored in our database for station/object N3WMC. If no packets are shown the sender has not sent any weather packets the latest 10 day(s).
| Time | Temp. | Humidity | Pressure | Rain* | Wind** | Luminosity | Snow |
|---|---|---|---|---|---|---|---|
| 1778177396 | 15.56° C | 40% | 1011.5 hPa | 0 mm | - | 771 W/m² | - |
| 1778177093 | 15.56° C | 42% | 1011.4 hPa | 0 mm | - | 366 W/m² | - |
| 1778176789 | 16.11° C | 42% | 1011.3 hPa | 0 mm | - | 185 W/m² | - |
| 1778176486 | 16.11° C | 40% | 1011.5 hPa | 0 mm | - | 829 W/m² | - |
| 1778176183 | 15.56° C | 41% | 1011.7 hPa | 0 mm | - | 240 W/m² | - |
| 1778175880 | 16.11° C | 41% | 1011.6 hPa | 0 mm | - | 240 W/m² | - |
| 1778175578 | 15° C | 40% | 1011.8 hPa | 0 mm | - | 880 W/m² | - |
| 1778175275 | 15° C | 39% | 1011.7 hPa | 0 mm | - | 199 W/m² | - |
| 1778174972 | 14.44° C | 41% | 1011.8 hPa | 0 mm | - | 504 W/m² | - |
| 1778174668 | 15° C | 41% | 1011.7 hPa | 0 mm | - | 286 W/m² | - |
| 1778174364 | 15° C | 41% | 1011.8 hPa | 0 mm | - | 264 W/m² | - |
| 1778174061 | 15.56° C | 40% | 1012.1 hPa | 0 mm | - | 192 W/m² | - |
| 1778173758 | 16.67° C | 39% | 1012 hPa | 0 mm | - | 216 W/m² | - |
| 1778173454 | 16.67° C | 37% | 1012.1 hPa | 0 mm | - | 852 W/m² | - |
| 1778173151 | 15.56° C | 40% | 1012.1 hPa | 0 mm | - | 826 W/m² | - |
| 1778172847 | 15° C | 41% | 1012.2 hPa | 0 mm | - | 402 W/m² | - |
| 1778172542 | 15° C | 42% | 1012 hPa | 0 mm | - | 489 W/m² | - |
| 1778172240 | 16.11° C | 40% | 1012.3 hPa | 0 mm | - | 266 W/m² | - |
| 1778171937 | 16.11° C | 40% | 1012.3 hPa | 0 mm | - | 852 W/m² | - |
| 1778171634 | 15.56° C | 40% | 1012.3 hPa | 0 mm | - | 771 W/m² | - |
| 1778171331 | 15.56° C | 40% | 1012.2 hPa | 0 mm | - | 786 W/m² | - |
| 1778171026 | 15.56° C | 40% | 1012.4 hPa | 0 mm | - | 786 W/m² | - |
| 1778170724 | 15° C | 40% | 1012.4 hPa | 0 mm | - | 786 W/m² | - |
| 1778170420 | 15.56° C | 41% | 1012.4 hPa | 0 mm | - | 239 W/m² | - |
| 1778170117 | 14.44° C | 43% | 1012.6 hPa | 0 mm | - | 644 W/m² | - |
* Rain latest hour (hover to see other rain measurements)
** Current wind speed in m/s (hover to see current wind gust speed)